Time;durP1;ratioP1;P1;durP2;ratioP2;P2;SDS_P1;SDS_P2;PMS_P1;PMS_P2;Temp;Humidity;BMP_temperature;BMP_pressure;BME280_temperature;BME280_humidity;BME280_pressure;Samples;Min_cycle;Max_cycle;Signal;HPM_P1;HPM_P2
2021/07/12 00:01:57;;;;;;;;;;;15.70;99.90;;;;;;4166518;28;19948;-77
2021/07/12 00:03:58;;;;;;;;;;;15.70;99.90;;;;;;4165186;28;19909;-77
2021/07/12 00:05:58;;;;;;;;;;;15.70;99.90;;;;;;4166598;28;19908;-77
2021/07/12 00:07:59;;;;;;;;;;;15.70;99.90;;;;;;4166444;28;19919;-78
2021/07/12 00:09:59;;;;;;;;;;;15.70;99.90;;;;;;4164824;28;19917;-77
2021/07/12 00:12:00;;;;;;;;;;;15.70;99.90;;;;;;4165199;28;20346;-78
2021/07/12 00:14:00;;;;;;;;;;;15.70;99.90;;;;;;4166782;28;19909;-78
2021/07/12 00:16:01;;;;;;;;;;;15.70;99.90;;;;;;4166288;28;19915;-76
2021/07/12 00:18:02;;;;;;;;;;;15.70;99.90;;;;;;4166666;28;19951;-78
2021/07/12 00:20:04;;;;;;;;;;;15.60;99.90;;;;;;4166453;28;20000;-78
2021/07/12 00:22:04;;;;;;;;;;;15.60;99.90;;;;;;4165000;28;19917;-78
2021/07/12 00:24:05;;;;;;;;;;;15.60;99.90;;;;;;4166321;28;20022;-77
2021/07/12 00:26:06;;;;;;;;;;;15.50;99.90;;;;;;4165153;28;20287;-78
2021/07/12 00:28:06;;;;;;;;;;;15.50;99.90;;;;;;4164683;28;19915;-77
2021/07/12 00:30:09;;;;;;;;;;;15.40;99.90;;;;;;4165867;28;19947;-77
2021/07/12 00:32:09;;;;;;;;;;;15.40;99.90;;;;;;4165408;28;19962;-78
2021/07/12 00:34:10;;;;;;;;;;;15.30;99.90;;;;;;4165061;28;19956;-79
2021/07/12 00:36:11;;;;;;;;;;;15.30;99.90;;;;;;4165225;28;19916;-79
2021/07/12 00:38:12;;;;;;;;;;;15.30;99.90;;;;;;4164682;28;19917;-78
2021/07/12 00:40:14;;;;;;;;;;;15.30;99.90;;;;;;4163425;28;19909;-79
2021/07/12 00:42:15;;;;;;;;;;;15.30;99.90;;;;;;4163929;28;19963;-78
2021/07/12 00:44:15;;;;;;;;;;;15.30;99.90;;;;;;4165439;28;20053;-79
2021/07/12 00:46:16;;;;;;;;;;;15.30;99.90;;;;;;4163867;28;19909;-77
2021/07/12 00:48:17;;;;;;;;;;;15.20;99.90;;;;;;4163751;28;19909;-78
2021/07/12 00:50:18;;;;;;;;;;;15.20;99.90;;;;;;4165231;28;19909;-79
2021/07/12 00:52:19;;;;;;;;;;;15.20;99.90;;;;;;4165329;28;19913;-78
2021/07/12 00:54:26;;;;;;;;;;;15.20;99.90;;;;;;4164603;28;19941;-78
2021/07/12 00:56:27;;;;;;;;;;;15.20;99.90;;;;;;4162771;28;19913;-78
2021/07/12 00:58:27;;;;;;;;;;;15.20;99.90;;;;;;4163332;28;20285;-78
2021/07/12 01:00:28;;;;;;;;;;;15.10;99.90;;;;;;4165366;28;19919;-77
2021/07/12 01:02:29;;;;;;;;;;;15.10;99.90;;;;;;4166231;28;19964;-79
2021/07/12 01:04:30;;;;;;;;;;;15.10;99.90;;;;;;4165791;28;20349;-79
2021/07/12 01:06:31;;;;;;;;;;;15.10;99.90;;;;;;4165506;28;19992;-78
2021/07/12 01:08:31;;;;;;;;;;;15.00;99.90;;;;;;4164976;28;19913;-78
2021/07/12 01:10:32;;;;;;;;;;;15.00;99.90;;;;;;4164042;28;19940;-78
2021/07/12 01:12:41;;;;;;;;;;;15.00;99.90;;;;;;4161149;28;19913;-79
2021/07/12 01:14:56;;;;;;;;;;;14.90;99.90;;;;;;4163136;28;19909;-79
2021/07/12 01:17:06;;;;;;;;;;;14.90;99.90;;;;;;4160887;28;19909;-79
2021/07/12 01:19:15;;;;;;;;;;;14.90;99.90;;;;;;4164246;28;20265;-78
2021/07/12 01:21:37;;;;;;;;;;;14.90;99.90;;;;;;4163586;28;19916;-77
2021/07/12 01:23:42;;;;;;;;;;;14.90;99.90;;;;;;4179329;28;20004;-79
2021/07/12 01:26:01;;;;;;;;;;;14.80;99.90;;;;;;4153186;28;19984;-78
2021/07/12 01:28:20;;;;;;;;;;;14.80;99.90;;;;;;4162557;28;19916;-77
2021/07/12 01:30:29;;;;;;;;;;;14.80;99.90;;;;;;4164638;28;19964;-78
2021/07/12 01:32:30;;;;;;;;;;;14.90;99.90;;;;;;4163744;28;19962;-78
2021/07/12 01:34:40;;;;;;;;;;;14.90;99.90;;;;;;4164098;28;19908;-77
2021/07/12 01:36:51;;;;;;;;;;;14.90;99.90;;;;;;4165496;28;19916;-78
2021/07/12 01:39:10;;;;;;;;;;;14.80;99.90;;;;;;4163565;28;19927;-78
2021/07/12 01:41:23;;;;;;;;;;;14.80;99.90;;;;;;4164939;28;19909;-79
2021/07/12 01:43:43;;;;;;;;;;;14.80;99.90;;;;;;4163885;28;19916;-78
2021/07/12 01:46:04;;;;;;;;;;;14.90;99.90;;;;;;4165421;28;19909;-77
2021/07/12 01:48:10;;;;;;;;;;;14.90;99.90;;;;;;4144937;28;19913;-78
2021/07/12 01:50:14;;;;;;;;;;;14.80;99.90;;;;;;4165167;28;19944;-78
2021/07/12 01:52:33;;;;;;;;;;;14.80;99.90;;;;;;4163685;28;19913;-78
2021/07/12 01:54:41;;;;;;;;;;;14.70;99.90;;;;;;4165052;28;19909;-78
2021/07/12 01:56:46;;;;;;;;;;;14.70;99.90;;;;;;4163758;28;19909;-78
2021/07/12 01:59:02;;;;;;;;;;;14.70;99.90;;;;;;4164813;28;19928;-78
2021/07/12 02:01:03;;;;;;;;;;;14.70;99.90;;;;;;4163138;28;19947;-77
2021/07/12 02:03:05;;;;;;;;;;;14.70;99.90;;;;;;4179316;28;19912;-78
2021/07/12 02:05:07;;;;;;;;;;;14.80;99.90;;;;;;4164775;28;19916;-77
2021/07/12 02:07:11;;;;;;;;;;;14.80;99.90;;;;;;4164344;28;20368;-77
2021/07/12 02:09:12;;;;;;;;;;;14.70;99.90;;;;;;4162919;28;19909;-78
2021/07/12 02:11:15;;;;;;;;;;;14.60;99.90;;;;;;4162412;28;20404;-77
2021/07/12 02:13:17;;;;;;;;;;;14.60;99.90;;;;;;4154856;28;19909;-77
2021/07/12 02:15:17;;;;;;;;;;;14.50;99.90;;;;;;4164850;28;19924;-78
2021/07/12 02:17:19;;;;;;;;;;;14.50;99.90;;;;;;4179595;28;20516;-77
2021/07/12 02:19:20;;;;;;;;;;;14.50;99.90;;;;;;4164784;28;19908;-77
2021/07/12 02:21:21;;;;;;;;;;;14.50;99.90;;;;;;4163244;28;21444;-77
2021/07/12 02:23:22;;;;;;;;;;;14.50;99.90;;;;;;4163310;28;19917;-77
2021/07/12 02:25:22;;;;;;;;;;;14.40;99.90;;;;;;4163392;28;19909;-77
2021/07/12 02:27:24;;;;;;;;;;;14.40;99.90;;;;;;4163748;28;20047;-77
2021/07/12 02:29:25;;;;;;;;;;;14.40;99.90;;;;;;4164351;28;20008;-77
2021/07/12 02:31:26;;;;;;;;;;;14.40;99.90;;;;;;4179751;28;19959;-76
2021/07/12 02:33:27;;;;;;;;;;;14.30;99.90;;;;;;4164697;28;19917;-77
2021/07/12 02:35:28;;;;;;;;;;;14.30;99.90;;;;;;4162918;28;19916;-76
2021/07/12 02:37:29;;;;;;;;;;;14.30;99.90;;;;;;4163064;28;19999;-77
2021/07/12 02:39:32;;;;;;;;;;;14.30;99.90;;;;;;4164401;28;19908;-77
2021/07/12 02:41:33;;;;;;;;;;;14.30;99.90;;;;;;4164305;28;19909;-77
2021/07/12 02:43:35;;;;;;;;;;;14.20;99.90;;;;;;4164214;28;20011;-77
2021/07/12 02:45:37;;;;;;;;;;;14.20;99.90;;;;;;4164510;28;19920;-77
2021/07/12 02:47:39;;;;;;;;;;;14.10;99.90;;;;;;4163158;28;19909;-77
2021/07/12 02:49:39;;;;;;;;;;;14.10;99.90;;;;;;4162954;28;19921;-77
2021/07/12 02:51:43;;;;;;;;;;;14.10;99.90;;;;;;4164448;28;20022;-76
2021/07/12 02:53:46;;;;;;;;;;;14.10;99.90;;;;;;4164264;28;19975;-76
2021/07/12 02:55:47;;;;;;;;;;;14.00;99.90;;;;;;4164190;28;19909;-77
2021/07/12 02:57:47;;;;;;;;;;;14.00;99.90;;;;;;4155370;28;19976;-77
2021/07/12 02:59:48;;;;;;;;;;;14.00;99.90;;;;;;4163409;28;19909;-77
2021/07/12 03:01:49;;;;;;;;;;;14.00;99.90;;;;;;4163801;28;19913;-77
2021/07/12 03:03:49;;;;;;;;;;;13.90;99.90;;;;;;4164138;28;20325;-77
2021/07/12 03:05:51;;;;;;;;;;;13.90;99.90;;;;;;4162722;28;19908;-77
2021/07/12 03:08:01;;;;;;;;;;;13.80;99.90;;;;;;4158593;28;19988;-77
2021/07/12 03:10:04;;;;;;;;;;;13.70;99.90;;;;;;4162045;28;19909;-78
2021/07/12 03:12:25;;;;;;;;;;;13.80;99.90;;;;;;4161944;28;19944;-77
2021/07/12 03:14:28;;;;;;;;;;;13.70;99.90;;;;;;4155913;28;19913;-77
2021/07/12 03:16:29;;;;;;;;;;;13.70;99.90;;;;;;4160835;28;20363;-77
2021/07/12 03:18:31;;;;;;;;;;;13.70;99.90;;;;;;4163415;28;20023;-78
2021/07/12 03:20:32;;;;;;;;;;;13.70;99.90;;;;;;4164158;28;19957;-78
2021/07/12 03:22:35;;;;;;;;;;;13.80;99.90;;;;;;4162290;28;19932;-78
2021/07/12 03:24:37;;;;;;;;;;;13.80;99.90;;;;;;4163607;28;20368;-78
2021/07/12 03:26:42;;;;;;;;;;;13.80;99.90;;;;;;4163852;28;19909;-77
2021/07/12 03:28:43;;;;;;;;;;;13.80;99.90;;;;;;4163474;28;20297;-78
2021/07/12 03:30:44;;;;;;;;;;;13.70;99.90;;;;;;4163929;28;19916;-78
2021/07/12 03:32:45;;;;;;;;;;;13.70;99.90;;;;;;4163768;28;19916;-78
2021/07/12 03:34:47;;;;;;;;;;;13.70;99.90;;;;;;4163906;28;20241;-77
2021/07/12 03:36:48;;;;;;;;;;;13.70;99.90;;;;;;4164061;28;19909;-77
2021/07/12 03:38:50;;;;;;;;;;;13.70;99.90;;;;;;4163711;28;19913;-77
2021/07/12 03:40:51;;;;;;;;;;;13.70;99.90;;;;;;4163676;28;19931;-78
2021/07/12 03:42:52;;;;;;;;;;;13.80;99.90;;;;;;4163659;28;19909;-78
2021/07/12 03:44:53;;;;;;;;;;;13.80;99.90;;;;;;4162503;28;19909;-78
2021/07/12 03:46:54;;;;;;;;;;;13.80;99.90;;;;;;4162828;28;19909;-78
2021/07/12 03:48:54;;;;;;;;;;;13.80;99.90;;;;;;4163864;28;20352;-78
2021/07/12 03:50:55;;;;;;;;;;;13.80;99.90;;;;;;4162226;28;19913;-78
2021/07/12 03:52:55;;;;;;;;;;;13.80;99.90;;;;;;4163710;28;19948;-77
2021/07/12 03:54:56;;;;;;;;;;;13.80;99.90;;;;;;4161959;28;19919;-77
2021/07/12 03:56:56;;;;;;;;;;;13.80;99.90;;;;;;4154388;28;19940;-78
2021/07/12 03:58:57;;;;;;;;;;;13.80;99.90;;;;;;4157275;28;19956;-78
2021/07/12 04:00:57;;;;;;;;;;;13.90;99.90;;;;;;4163131;28;19913;-77
2021/07/12 04:02:58;;;;;;;;;;;13.90;99.90;;;;;;4163100;28;19921;-78
2021/07/12 04:04:58;;;;;;;;;;;13.90;99.90;;;;;;4161323;28;19917;-77
2021/07/12 04:06:59;;;;;;;;;;;14.00;99.90;;;;;;4162846;28;19916;-77
2021/07/12 04:09:00;;;;;;;;;;;14.00;99.90;;;;;;4162063;28;19910;-78
2021/07/12 04:11:01;;;;;;;;;;;14.10;99.90;;;;;;4160150;28;20000;-77
2021/07/12 04:13:01;;;;;;;;;;;14.20;99.90;;;;;;4162012;28;20280;-78
2021/07/12 04:15:03;;;;;;;;;;;14.30;99.90;;;;;;4163573;28;19916;-78
2021/07/12 04:17:03;;;;;;;;;;;14.40;99.90;;;;;;4162227;28;20011;-78
2021/07/12 04:19:04;;;;;;;;;;;14.40;99.90;;;;;;4163551;28;20156;-77
2021/07/12 04:21:04;;;;;;;;;;;14.50;99.90;;;;;;4163616;28;20276;-77
2021/07/12 04:23:05;;;;;;;;;;;14.60;99.90;;;;;;4162122;28;19916;-78
2021/07/12 04:25:06;;;;;;;;;;;14.70;99.90;;;;;;4163341;28;20260;-78
2021/07/12 04:27:07;;;;;;;;;;;14.70;99.90;;;;;;4163220;28;20004;-77
2021/07/12 04:29:08;;;;;;;;;;;14.80;99.90;;;;;;4163626;28;20285;-76
2021/07/12 04:31:11;;;;;;;;;;;14.90;99.90;;;;;;4165851;28;20345;-77
2021/07/12 04:33:11;;;;;;;;;;;14.90;99.90;;;;;;4166035;28;19909;-77
2021/07/12 04:35:13;;;;;;;;;;;15.00;99.90;;;;;;4166486;28;19916;-77
2021/07/12 04:37:13;;;;;;;;;;;15.00;99.90;;;;;;4164664;28;20079;-77
2021/07/12 04:39:14;;;;;;;;;;;15.10;99.90;;;;;;4166413;28;19913;-78
2021/07/12 04:41:16;;;;;;;;;;;15.10;99.90;;;;;;4166024;28;20000;-77
2021/07/12 04:43:16;;;;;;;;;;;15.20;99.90;;;;;;4165721;28;19909;-77
2021/07/12 04:45:17;;;;;;;;;;;15.30;99.90;;;;;;4165588;28;20287;-77
2021/07/12 04:47:17;;;;;;;;;;;15.40;99.90;;;;;;4163547;28;19909;-77
2021/07/12 04:49:18;;;;;;;;;;;15.40;99.90;;;;;;4165615;28;19980;-78
2021/07/12 04:51:18;;;;;;;;;;;15.50;99.90;;;;;;4165813;28;19997;-78
2021/07/12 04:53:19;;;;;;;;;;;15.50;99.90;;;;;;4165716;28;19913;-78
2021/07/12 04:55:19;;;;;;;;;;;15.60;99.90;;;;;;4165598;28;20315;-78
2021/07/12 04:57:20;;;;;;;;;;;15.60;99.90;;;;;;4164149;28;19963;-78
2021/07/12 04:59:26;;;;;;;;;;;15.70;99.90;;;;;;4177669;28;19943;-78
2021/07/12 05:01:27;;;;;;;;;;;15.70;99.90;;;;;;4153051;28;20372;-77
2021/07/12 05:03:30;;;;;;;;;;;15.70;99.90;;;;;;4165351;28;19921;-78
2021/07/12 05:05:31;;;;;;;;;;;15.80;99.90;;;;;;4164037;28;19924;-78
2021/07/12 05:07:32;;;;;;;;;;;15.80;99.90;;;;;;4161433;28;19909;-78
2021/07/12 05:09:32;;;;;;;;;;;15.80;99.90;;;;;;4165503;28;19909;-78
2021/07/12 05:11:33;;;;;;;;;;;15.90;99.90;;;;;;4163232;28;19917;-78
2021/07/12 05:13:34;;;;;;;;;;;16.00;99.90;;;;;;4165373;28;20002;-78
2021/07/12 05:15:37;;;;;;;;;;;16.00;99.90;;;;;;4160904;28;20452;-78
2021/07/12 05:17:37;;;;;;;;;;;16.10;99.90;;;;;;4162052;28;19913;-78
2021/07/12 05:19:38;;;;;;;;;;;16.20;99.90;;;;;;4162936;28;20390;-77
2021/07/12 05:21:39;;;;;;;;;;;16.30;99.90;;;;;;4164463;28;19909;-78
2021/07/12 05:23:40;;;;;;;;;;;16.30;99.90;;;;;;4164326;28;19936;-77
2021/07/12 05:25:41;;;;;;;;;;;16.40;99.90;;;;;;4164662;28;19913;-77
2021/07/12 05:27:41;;;;;;;;;;;16.40;99.90;;;;;;4162561;28;19917;-77
2021/07/12 05:29:42;;;;;;;;;;;16.40;99.90;;;;;;4162823;28;19909;-77
2021/07/12 05:31:43;;;;;;;;;;;16.50;99.90;;;;;;4164288;28;20012;-78
2021/07/12 05:33:44;;;;;;;;;;;16.50;99.90;;;;;;4163876;28;20237;-77
2021/07/12 05:35:45;;;;;;;;;;;16.60;99.90;;;;;;4165129;28;19992;-78
2021/07/12 05:37:45;;;;;;;;;;;16.70;99.90;;;;;;4165048;28;19924;-77
2021/07/12 05:39:46;;;;;;;;;;;16.70;99.90;;;;;;4164866;28;19944;-78
2021/07/12 05:41:47;;;;;;;;;;;16.70;99.90;;;;;;4164207;28;19909;-78
2021/07/12 05:43:47;;;;;;;;;;;16.70;99.90;;;;;;4165398;28;19909;-77
2021/07/12 05:45:48;;;;;;;;;;;16.80;99.90;;;;;;4164405;28;20024;-78
2021/07/12 05:47:48;;;;;;;;;;;16.80;99.90;;;;;;4167546;28;19959;-78
2021/07/12 05:49:49;;;;;;;;;;;16.90;99.90;;;;;;4156793;28;19917;-78
2021/07/12 05:51:50;;;;;;;;;;;17.00;99.90;;;;;;4149992;28;19910;-78
2021/07/12 05:53:50;;;;;;;;;;;17.00;99.90;;;;;;4164584;28;20333;-78
2021/07/12 05:55:51;;;;;;;;;;;17.10;99.90;;;;;;4153688;28;19909;-77
2021/07/12 05:57:51;;;;;;;;;;;17.20;99.90;;;;;;4146717;28;19929;-78
2021/07/12 05:59:52;;;;;;;;;;;17.30;99.90;;;;;;4153662;28;19918;-78
2021/07/12 06:01:53;;;;;;;;;;;17.40;99.90;;;;;;4168111;28;20419;-77
2021/07/12 06:03:53;;;;;;;;;;;17.60;99.90;;;;;;4150519;28;19914;-78
2021/07/12 06:05:54;;;;;;;;;;;17.70;99.90;;;;;;4148720;28;20015;-78
2021/07/12 06:07:55;;;;;;;;;;;17.90;99.90;;;;;;4151549;28;19913;-77
2021/07/12 06:09:55;;;;;;;;;;;18.00;99.90;;;;;;4157587;28;20315;-77
2021/07/12 06:11:56;;;;;;;;;;;18.20;99.90;;;;;;4158843;28;19916;-78
2021/07/12 06:13:57;;;;;;;;;;;18.30;99.90;;;;;;4147790;28;20353;-78
2021/07/12 06:15:57;;;;;;;;;;;18.50;99.90;;;;;;4158370;28;19967;-77
2021/07/12 06:17:58;;;;;;;;;;;18.60;99.90;;;;;;4164526;28;19913;-78
2021/07/12 06:19:58;;;;;;;;;;;18.80;99.90;;;;;;4161660;28;19916;-77
2021/07/12 06:21:59;;;;;;;;;;;19.00;99.90;;;;;;4158542;28;19909;-77
2021/07/12 06:23:59;;;;;;;;;;;19.30;99.90;;;;;;4163642;28;19916;-78
2021/07/12 06:26:00;;;;;;;;;;;19.50;99.90;;;;;;4163330;28;19909;-78
2021/07/12 06:28:00;;;;;;;;;;;19.60;99.90;;;;;;4163114;28;19909;-78
2021/07/12 06:30:02;;;;;;;;;;;19.70;99.90;;;;;;4164679;28;20384;-77
2021/07/12 06:32:02;;;;;;;;;;;19.90;99.90;;;;;;4162033;28;19913;-78
2021/07/12 06:34:03;;;;;;;;;;;20.10;99.90;;;;;;4163772;28;19944;-77
2021/07/12 06:36:05;;;;;;;;;;;20.20;99.90;;;;;;4158946;28;19913;-78
2021/07/12 06:38:05;;;;;;;;;;;20.20;99.90;;;;;;4162548;28;19947;-77
2021/07/12 06:40:06;;;;;;;;;;;20.20;99.90;;;;;;4163621;28;19913;-78
2021/07/12 06:42:06;;;;;;;;;;;20.20;99.90;;;;;;4163697;28;19909;-77
2021/07/12 06:44:07;;;;;;;;;;;20.20;99.90;;;;;;4162620;28;19991;-77
2021/07/12 06:46:07;;;;;;;;;;;20.20;99.90;;;;;;4162623;28;20371;-78
2021/07/12 06:48:08;;;;;;;;;;;20.10;99.90;;;;;;4162186;28;19913;-77
2021/07/12 06:50:09;;;;;;;;;;;20.10;99.90;;;;;;4162600;28;20024;-78
2021/07/12 06:52:09;;;;;;;;;;;20.00;99.90;;;;;;4165511;28;19920;-77
2021/07/12 06:54:10;;;;;;;;;;;20.00;99.90;;;;;;4163362;28;20593;-77
2021/07/12 06:56:11;;;;;;;;;;;20.10;99.90;;;;;;4162607;28;19909;-77
2021/07/12 06:58:12;;;;;;;;;;;20.10;99.90;;;;;;4163862;28;20276;-77
2021/07/12 07:00:13;;;;;;;;;;;20.00;99.90;;;;;;4161575;28;20373;-77
2021/07/12 07:02:14;;;;;;;;;;;20.00;99.90;;;;;;4161703;28;19939;-78
2021/07/12 07:04:14;;;;;;;;;;;20.10;99.90;;;;;;4162191;28;19913;-77
2021/07/12 07:06:15;;;;;;;;;;;20.30;99.90;;;;;;4161771;28;20283;-77
2021/07/12 07:08:16;;;;;;;;;;;20.40;99.90;;;;;;4161255;28;19999;-78
2021/07/12 07:10:16;;;;;;;;;;;20.50;99.90;;;;;;4161198;28;19967;-77
2021/07/12 07:12:17;;;;;;;;;;;20.60;99.90;;;;;;4162874;28;20344;-77
2021/07/12 07:14:17;;;;;;;;;;;20.70;99.90;;;;;;4162784;28;19909;-78
2021/07/12 07:16:18;;;;;;;;;;;20.80;99.90;;;;;;4162657;28;19915;-76
2021/07/12 07:18:18;;;;;;;;;;;20.80;99.90;;;;;;4162980;28;19913;-78
2021/07/12 07:20:20;;;;;;;;;;;20.90;99.90;;;;;;4163702;28;19972;-78
2021/07/12 07:22:20;;;;;;;;;;;21.10;99.90;;;;;;4164043;28;19941;-78
2021/07/12 07:24:21;;;;;;;;;;;21.20;99.90;;;;;;4164069;28;20367;-77
2021/07/12 07:26:22;;;;;;;;;;;21.30;99.90;;;;;;4162383;28;20463;-78
2021/07/12 07:28:22;;;;;;;;;;;21.40;99.90;;;;;;4163198;28;20242;-78
2021/07/12 07:30:23;;;;;;;;;;;21.60;99.90;;;;;;4162261;28;19916;-78
2021/07/12 07:32:24;;;;;;;;;;;21.90;99.90;;;;;;4162328;28;19997;-78
2021/07/12 07:34:24;;;;;;;;;;;22.00;99.90;;;;;;4163270;28;19939;-77
2021/07/12 07:36:25;;;;;;;;;;;22.10;99.90;;;;;;4152300;28;19921;-78
2021/07/12 07:38:26;;;;;;;;;;;22.20;99.90;;;;;;4162281;28;20043;-78
2021/07/12 07:40:26;;;;;;;;;;;22.20;99.90;;;;;;4162015;28;19909;-77
2021/07/12 07:42:27;;;;;;;;;;;22.20;99.90;;;;;;4162676;28;19949;-76
2021/07/12 07:44:27;;;;;;;;;;;22.30;99.90;;;;;;4158647;28;19913;-77
2021/07/12 07:46:28;;;;;;;;;;;22.50;99.90;;;;;;4163263;28;19915;-77
2021/07/12 07:48:29;;;;;;;;;;;22.80;99.90;;;;;;4163351;28;20314;-77
2021/07/12 07:50:29;;;;;;;;;;;23.00;99.90;;;;;;4160707;28;19960;-77
2021/07/12 07:52:30;;;;;;;;;;;23.10;99.90;;;;;;4163170;28;19909;-78
2021/07/12 07:54:30;;;;;;;;;;;23.10;99.90;;;;;;4163213;28;19917;-77
2021/07/12 07:56:31;;;;;;;;;;;23.20;99.90;;;;;;4160355;28;19916;-78
2021/07/12 07:58:33;;;;;;;;;;;23.30;99.90;;;;;;4163172;28;20288;-78
2021/07/12 08:00:34;;;;;;;;;;;23.40;99.90;;;;;;4163244;28;19909;-78
2021/07/12 08:02:35;;;;;;;;;;;23.30;99.90;;;;;;4163205;28;20391;-78
2021/07/12 08:04:35;;;;;;;;;;;23.50;99.90;;;;;;4161352;28;19945;-77
2021/07/12 08:06:36;;;;;;;;;;;23.60;99.90;;;;;;4165268;28;19920;-78
2021/07/12 08:08:37;;;;;;;;;;;23.70;99.90;;;;;;4161873;28;19913;-78
2021/07/12 08:10:37;;;;;;;;;;;23.70;99.90;;;;;;4164894;28;19909;-77
2021/07/12 08:12:38;;;;;;;;;;;23.90;99.90;;;;;;4166176;28;19909;-78
2021/07/12 08:14:39;;;;;;;;;;;24.10;99.90;;;;;;4164320;28;19909;-78
2021/07/12 08:16:39;;;;;;;;;;;24.00;99.90;;;;;;4166075;28;20268;-77
2021/07/12 08:18:40;;;;;;;;;;;24.00;99.90;;;;;;4164643;28;19928;-78
2021/07/12 08:20:44;;;;;;;;;;;24.20;99.90;;;;;;4162956;28;19917;-78
2021/07/12 08:22:46;;;;;;;;;;;24.40;99.90;;;;;;4165030;28;20395;-78
2021/07/12 08:24:46;;;;;;;;;;;24.20;99.90;;;;;;4164867;28;20083;-78
2021/07/12 08:26:47;;;;;;;;;;;24.10;99.90;;;;;;4165481;28;19909;-77
2021/07/12 08:28:47;;;;;;;;;;;24.00;99.90;;;;;;4164445;28;19943;-78
2021/07/12 08:30:48;;;;;;;;;;;23.80;99.90;;;;;;4166024;28;19909;-78
2021/07/12 08:32:49;;;;;;;;;;;24.00;99.90;;;;;;4166301;28;19974;-78
2021/07/12 08:34:49;;;;;;;;;;;24.20;99.90;;;;;;4165968;28;20000;-78
2021/07/12 08:36:50;;;;;;;;;;;24.30;99.90;;;;;;4168552;28;19909;-78
2021/07/12 08:38:52;;;;;;;;;;;24.50;99.90;;;;;;4164168;28;20000;-78
2021/07/12 08:40:53;;;;;;;;;;;24.70;99.90;;;;;;4165966;28;19944;-77
2021/07/12 08:42:56;;;;;;;;;;;24.70;99.90;;;;;;4166181;28;19909;-78
2021/07/12 08:44:57;;;;;;;;;;;24.90;99.90;;;;;;4166067;28;19913;-78
2021/07/12 08:46:58;;;;;;;;;;;25.00;99.90;;;;;;4166019;28;20411;-78
2021/07/12 08:48:58;;;;;;;;;;;25.00;99.90;;;;;;4165939;28;19957;-78
2021/07/12 08:50:59;;;;;;;;;;;25.20;99.90;;;;;;4166002;28;20158;-78
2021/07/12 08:53:00;;;;;;;;;;;25.00;99.90;;;;;;4165901;28;19913;-78
2021/07/12 08:55:01;;;;;;;;;;;25.10;99.90;;;;;;4165784;28;19909;-78
2021/07/12 08:57:01;;;;;;;;;;;25.20;99.90;;;;;;4164252;28;19916;-77
2021/07/12 08:59:20;;;;;;;;;;;25.30;99.90;;;;;;4180167;28;19959;-77
2021/07/12 09:01:21;;;;;;;;;;;25.20;99.90;;;;;;4165359;28;19921;-77
2021/07/12 09:03:34;;;;;;;;;;;25.40;99.90;;;;;;4164280;28;20265;-78
2021/07/12 09:05:49;;;;;;;;;;;25.40;99.90;;;;;;4165549;28;19915;-78
2021/07/12 09:07:49;;;;;;;;;;;25.50;99.90;;;;;;4164954;28;19916;-78
2021/07/12 09:09:59;;;;;;;;;;;25.80;99.90;;;;;;4163930;28;19909;-78
2021/07/12 09:12:17;;;;;;;;;;;25.80;99.90;;;;;;4165003;28;19984;-76
2021/07/12 09:14:18;;;;;;;;;;;25.80;99.90;;;;;;4171389;28;19940;-78
2021/07/12 09:16:25;;;;;;;;;;;25.50;99.90;;;;;;4165378;28;20260;-78
2021/07/12 09:18:34;;;;;;;;;;;25.70;99.90;;;;;;4165052;28;19921;-77
2021/07/12 09:20:34;;;;;;;;;;;26.00;99.90;;;;;;4164053;28;19935;-78
2021/07/12 09:22:36;;;;;;;;;;;26.10;99.90;;;;;;4165239;28;19949;-78
2021/07/12 09:24:52;;;;;;;;;;;26.00;99.90;;;;;;4164790;28;19975;-78
2021/07/12 09:26:53;;;;;;;;;;;26.00;99.90;;;;;;4165133;28;20304;-78
2021/07/12 09:28:54;;;;;;;;;;;26.20;99.90;;;;;;4165097;28;19913;-78
2021/07/12 09:30:54;;;;;;;;;;;26.20;99.90;;;;;;4165479;28;20038;-78
2021/07/12 09:32:55;;;;;;;;;;;26.40;99.90;;;;;;4163874;28;19944;-78
2021/07/12 09:34:57;;;;;;;;;;;26.40;99.90;;;;;;4165434;28;19956;-78
2021/07/12 09:36:57;;;;;;;;;;;26.70;99.90;;;;;;4165477;28;19909;-78
2021/07/12 09:39:14;;;;;;;;;;;26.70;99.90;;;;;;4165167;28;19917;-79
2021/07/12 09:41:28;;;;;;;;;;;26.70;99.90;;;;;;4157467;28;19920;-77
2021/07/12 09:43:32;;;;;;;;;;;26.90;99.90;;;;;;4158007;28;20065;-78
2021/07/12 09:45:36;;;;;;;;;;;27.10;99.90;;;;;;4162114;28;20015;-78
2021/07/12 09:47:37;;;;;;;;;;;27.40;99.90;;;;;;4164790;28;19909;-77
2021/07/12 09:49:38;;;;;;;;;;;27.90;99.90;;;;;;4164602;28;19913;-79
2021/07/12 09:51:39;;;;;;;;;;;27.80;99.90;;;;;;4180429;28;19909;-78
2021/07/12 09:53:40;;;;;;;;;;;28.20;99.90;;;;;;4165165;28;19944;-78
2021/07/12 09:55:45;;;;;;;;;;;28.00;99.90;;;;;;4163826;28;19909;-78
2021/07/12 09:57:45;;;;;;;;;;;28.00;99.90;;;;;;4163475;28;20466;-78
2021/07/12 10:00:04;;;;;;;;;;;28.00;99.90;;;;;;4163164;28;19913;-78
2021/07/12 10:02:31;;;;;;;;;;;28.20;99.90;;;;;;4174436;27;1885223;-77
2021/07/12 10:04:32;;;;;;;;;;;28.50;99.90;;;;;;4238531;27;19923;-76
2021/07/12 10:06:32;;;;;;;;;;;28.60;99.90;;;;;;4237518;27;20335;-76
2021/07/12 10:08:33;;;;;;;;;;;28.50;99.90;;;;;;4224903;28;20011;-76
2021/07/12 10:10:34;;;;;;;;;;;28.60;99.90;;;;;;4215966;28;19949;-77
2021/07/12 10:12:35;;;;;;;;;;;29.10;99.90;;;;;;4233010;27;19912;-78
2021/07/12 10:14:37;;;;;;;;;;;29.00;99.90;;;;;;4230069;28;19912;-78
2021/07/12 10:16:38;;;;;;;;;;;29.40;99.90;;;;;;4224791;28;19916;-77
2021/07/12 10:18:39;;;;;;;;;;;29.60;99.90;;;;;;4223829;28;19927;-77
2021/07/12 10:20:40;;;;;;;;;;;29.40;99.90;;;;;;4217764;28;19916;-77
2021/07/12 10:22:42;;;;;;;;;;;29.60;99.90;;;;;;4225532;28;19919;-77
2021/07/12 10:24:44;;;;;;;;;;;29.50;99.90;;;;;;4224841;28;19916;-77
2021/07/12 10:26:46;;;;;;;;;;;29.20;99.90;;;;;;4225125;28;19916;-78
2021/07/12 10:28:47;;;;;;;;;;;30.00;99.90;;;;;;4212278;28;19921;-77
2021/07/12 10:30:48;;;;;;;;;;;30.70;99.90;;;;;;4217813;28;19916;-78
2021/07/12 10:32:54;;;;;;;;;;;31.20;99.90;;;;;;4229629;27;19912;-78
2021/07/12 10:34:56;;;;;;;;;;;30.50;99.90;;;;;;4240240;28;19912;-77
2021/07/12 10:36:58;;;;;;;;;;;30.00;99.90;;;;;;4227706;28;19961;-77
2021/07/12 10:38:58;;;;;;;;;;;29.10;99.90;;;;;;4234544;27;20317;-77
2021/07/12 10:41:13;;;;;;;;;;;28.40;99.90;;;;;;4238269;28;20018;-76
2021/07/12 10:43:33;;;;;;;;;;;28.00;99.90;;;;;;4226443;28;19916;-77
2021/07/12 10:45:35;;;;;;;;;;;28.50;99.90;;;;;;4218976;28;20367;-77
2021/07/12 10:47:45;;;;;;;;;;;28.80;99.90;;;;;;4219876;28;19923;-77
2021/07/12 10:49:46;;;;;;;;;;;28.50;99.90;;;;;;4223008;28;19969;-77
2021/07/12 10:51:46;;;;;;;;;;;29.10;99.90;;;;;;4218832;28;19912;-77
2021/07/12 10:53:55;;;;;;;;;;;29.60;99.90;;;;;;4210806;27;19916;-78
2021/07/12 10:55:58;;;;;;;;;;;29.60;99.90;;;;;;4219065;28;19951;-77
2021/07/12 10:58:18;;;;;;;;;;;29.30;99.90;;;;;;4237022;27;19919;-77
2021/07/12 11:00:18;;;;;;;;;;;29.00;99.90;;;;;;4223788;27;20415;-77
2021/07/12 11:02:19;;;;;;;;;;;28.80;99.90;;;;;;4207888;28;19956;-78
2021/07/12 11:04:37;;;;;;;;;;;28.00;99.90;;;;;;4209959;28;19958;-77
2021/07/12 11:06:53;;;;;;;;;;;27.70;99.90;;;;;;4207355;28;19916;-77
2021/07/12 11:08:54;;;;;;;;;;;27.80;99.90;;;;;;4207440;28;19917;-78
2021/07/12 11:10:55;;;;;;;;;;;28.30;99.90;;;;;;4208163;28;20322;-78
2021/07/12 11:13:02;;;;;;;;;;;28.90;99.90;;;;;;4203135;28;19955;-77
2021/07/12 11:15:15;;;;;;;;;;;29.20;99.90;;;;;;4196718;28;20283;-76
2021/07/12 11:17:36;;;;;;;;;;;29.50;99.90;;;;;;4195522;28;19913;-77
2021/07/12 11:19:43;;;;;;;;;;;30.00;99.90;;;;;;4198597;28;19917;-77
2021/07/12 11:21:43;;;;;;;;;;;29.40;99.90;;;;;;4197893;28;20464;-77
2021/07/12 11:23:49;;;;;;;;;;;29.20;99.90;;;;;;4195894;28;19920;-77
2021/07/12 11:25:50;;;;;;;;;;;29.30;99.90;;;;;;4200634;28;19943;-76
2021/07/12 11:28:06;;;;;;;;;;;29.60;99.90;;;;;;4206469;28;19995;-76
2021/07/12 11:30:25;;;;;;;;;;;29.50;99.90;;;;;;4197014;28;19917;-76
2021/07/12 11:32:35;;;;;;;;;;;30.10;99.90;;;;;;4196001;28;20395;-77
2021/07/12 11:34:47;;;;;;;;;;;29.90;99.90;;;;;;4197022;28;19920;-76
2021/07/12 11:36:47;;;;;;;;;;;30.10;99.90;;;;;;4197301;28;19917;-76
2021/07/12 11:38:48;;;;;;;;;;;30.20;99.90;;;;;;4193352;28;20378;-76
2021/07/12 11:40:52;;;;;;;;;;;30.50;99.90;;;;;;4191889;28;19916;-76
2021/07/12 11:42:52;;;;;;;;;;;29.90;99.90;;;;;;4192446;28;19932;-76
2021/07/12 11:45:03;;;;;;;;;;;29.50;99.90;;;;;;4191857;28;19917;-76
2021/07/12 11:47:22;;;;;;;;;;;29.20;99.90;;;;;;4194246;28;20304;-77
2021/07/12 11:49:24;;;;;;;;;;;28.90;99.90;;;;;;4197045;28;19912;-76
2021/07/12 11:51:25;;;;;;;;;;;28.70;99.90;;;;;;4198435;28;19917;-76
2021/07/12 11:53:26;;;;;;;;;;;28.80;99.90;;;;;;4198089;28;20423;-76
2021/07/12 11:55:28;;;;;;;;;;;29.00;99.90;;;;;;4198115;28;20371;-77